Newcomerstown, Ohio
Current Conditions -  °F | °C
As of 11:53 PM on Saturday 25 Oct 2014 (Local Time) from KPHD Reporting Station
Clear Clear  
Wind Chill: 59°   Ceiling: Unl
Heat Index: 59°   Visibility: 10mi
Dew Point: 34°   Wind: 9mph
Humidity: 39%   Direction: 300°WNW
Pressure: 29.84"   Gusts: NA
Location:  40.27°N, 81.61°W
Report Text: KPHD 260353Z AUTO 30008KT 10SM CLR 15/01 A2984 RMK AO2 SLP102 T01500011
Loading
Personal Weather Stations






























Interactive Weather Map
Tropical Storm Tracking
New forecast layout! Learn more

10-Day Weather Forecast

Advertisements
Track Severe Weather on mobile